Time;durP1;ratioP1;P1;durP2;ratioP2;P2;SDS_P1;SDS_P2;PMS_P1;PMS_P2;Temp;Humidity;BMP_temperature;BMP_pressure;BME280_temperature;BME280_humidity;BME280_pressure;Samples;Min_cycle;Max_cycle;Signal;HPM_P1;HPM_P2
2021/01/25 00:00:22;;;;;;;;;;;1.10;99.90;;;;;;5068443;28;19920;-83
2021/01/25 00:02:47;;;;;;;;;;;1.10;99.90;;;;;;5024472;28;19940;-84
2021/01/25 00:05:13;;;;;;;;;;;1.10;99.90;;;;;;5048408;28;19913;-83
2021/01/25 00:07:40;;;;;;;;;;;1.10;99.90;;;;;;5039802;28;21310;-84
2021/01/25 00:10:06;;;;;;;;;;;1.20;99.90;;;;;;5059222;28;20023;-84
2021/01/25 00:12:32;;;;;;;;;;;1.20;99.90;;;;;;5040989;28;19959;-84
2021/01/25 00:14:57;;;;;;;;;;;1.20;99.90;;;;;;5040254;28;20308;-83
2021/01/25 00:17:23;;;;;;;;;;;1.10;99.90;;;;;;5041275;28;19944;-83
2021/01/25 00:19:48;;;;;;;;;;;1.20;99.90;;;;;;5041340;28;19920;-83
2021/01/25 00:22:14;;;;;;;;;;;1.20;99.90;;;;;;5059056;28;19916;-83
2021/01/25 00:24:39;;;;;;;;;;;1.20;99.90;;;;;;5039969;28;20281;-84
2021/01/25 00:27:05;;;;;;;;;;;1.20;99.90;;;;;;5053494;28;19924;-83
2021/01/25 00:29:31;;;;;;;;;;;1.20;99.90;;;;;;5056501;28;19923;-83
2021/01/25 00:31:58;;;;;;;;;;;1.20;99.90;;;;;;5040819;28;19916;-82
2021/01/25 00:34:26;;;;;;;;;;;1.20;99.90;;;;;;5055910;28;20328;-83
2021/01/25 00:36:51;;;;;;;;;;;1.20;99.90;;;;;;5025168;28;20474;-83
2021/01/25 00:39:17;;;;;;;;;;;1.20;99.90;;;;;;5039086;28;19955;-83
2021/01/25 00:41:43;;;;;;;;;;;1.20;99.90;;;;;;5043234;28;20388;-83
2021/01/25 00:44:08;;;;;;;;;;;1.10;99.90;;;;;;5037805;28;19912;-83
2021/01/25 00:46:33;;;;;;;;;;;1.10;99.90;;;;;;5040577;28;20016;-83
2021/01/25 00:48:59;;;;;;;;;;;1.10;99.90;;;;;;5022623;28;20323;-83
2021/01/25 00:51:24;;;;;;;;;;;1.10;99.90;;;;;;5021500;28;20265;-84
2021/01/25 00:53:50;;;;;;;;;;;1.10;99.90;;;;;;5057278;28;19931;-83
2021/01/25 00:56:15;;;;;;;;;;;1.10;99.90;;;;;;5039847;28;19955;-83
2021/01/25 00:58:41;;;;;;;;;;;1.10;99.90;;;;;;5041151;28;19970;-83
2021/01/25 01:01:06;;;;;;;;;;;1.10;99.90;;;;;;5041759;28;19913;-83
2021/01/25 01:03:32;;;;;;;;;;;1.10;99.90;;;;;;5048442;28;19962;-83
2021/01/25 01:05:57;;;;;;;;;;;1.00;99.90;;;;;;5053463;28;19991;-83
2021/01/25 01:08:23;;;;;;;;;;;1.00;99.90;;;;;;5059787;28;19913;-83
2021/01/25 01:10:48;;;;;;;;;;;1.00;99.90;;;;;;5039448;28;20320;-83
2021/01/25 01:13:14;;;;;;;;;;;1.00;99.90;;;;;;5040406;28;19920;-83
2021/01/25 01:15:39;;;;;;;;;;;1.00;99.90;;;;;;5030668;28;19956;-83
2021/01/25 01:18:05;;;;;;;;;;;1.00;99.90;;;;;;5042479;28;19919;-83
2021/01/25 01:20:31;;;;;;;;;;;1.00;99.90;;;;;;5043104;28;19916;-83
2021/01/25 01:22:56;;;;;;;;;;;1.00;99.90;;;;;;5061097;28;19909;-83
2021/01/25 01:28:10;;;;;;;;;;;1.00;99.90;;;;;;5024711;28;20390;-84
2021/01/25 01:30:36;;;;;;;;;;;1.00;99.90;;;;;;5025568;28;19913;-85
2021/01/25 01:33:01;;;;;;;;;;;1.00;99.90;;;;;;5010931;28;19913;-83
2021/01/25 01:35:27;;;;;;;;;;;1.10;99.90;;;;;;5020721;28;19921;-85
2021/01/25 01:37:52;;;;;;;;;;;1.10;99.90;;;;;;5006977;28;19909;-85
2021/01/25 01:40:18;;;;;;;;;;;1.10;99.90;;;;;;5023759;28;19936;-83
2021/01/25 01:42:43;;;;;;;;;;;1.10;99.90;;;;;;5024401;28;19909;-84
2021/01/25 01:45:09;;;;;;;;;;;1.10;99.90;;;;;;5021482;28;20390;-85
2021/01/25 01:47:35;;;;;;;;;;;1.10;99.90;;;;;;5025003;28;19917;-85
2021/01/25 01:50:02;;;;;;;;;;;1.10;99.90;;;;;;5024674;28;19914;-86
2021/01/25 01:52:28;;;;;;;;;;;1.10;99.90;;;;;;4988615;28;20341;-84
2021/01/25 01:54:58;;;;;;;;;;;1.10;99.90;;;;;;5022159;28;19953;-84
2021/01/25 01:57:23;;;;;;;;;;;1.00;99.90;;;;;;5025642;28;19959;-85
2021/01/25 01:59:49;;;;;;;;;;;1.00;99.90;;;;;;5008315;28;19996;-85
2021/01/25 02:02:14;;;;;;;;;;;1.00;99.90;;;;;;5026389;28;19910;-84
2021/01/25 02:04:40;;;;;;;;;;;1.00;99.90;;;;;;5026367;28;20295;-84
2021/01/25 02:07:06;;;;;;;;;;;1.00;99.90;;;;;;5020519;28;19914;-84
2021/01/25 02:09:33;;;;;;;;;;;1.10;99.90;;;;;;5007796;28;19933;-84
2021/01/25 02:11:59;;;;;;;;;;;1.10;99.90;;;;;;5021979;28;20453;-83
2021/01/25 02:14:25;;;;;;;;;;;1.10;99.90;;;;;;5028359;28;19909;-85
2021/01/25 02:16:50;;;;;;;;;;;1.10;99.90;;;;;;5030484;28;19924;-84
2021/01/25 02:19:20;;;;;;;;;;;1.00;99.90;;;;;;5029515;28;19949;-84
2021/01/25 02:21:55;;;;;;;;;;;1.00;99.90;;;;;;5029219;28;19921;-83
2021/01/25 02:24:30;;;;;;;;;;;1.00;99.90;;;;;;5012603;28;20297;-83
2021/01/25 02:27:04;;;;;;;;;;;1.10;99.90;;;;;;5018730;28;19923;-82
2021/01/25 02:29:29;;;;;;;;;;;1.10;99.90;;;;;;5007336;28;19972;-83
2021/01/25 02:31:55;;;;;;;;;;;1.00;99.90;;;;;;4999573;28;19910;-81
2021/01/25 02:34:21;;;;;;;;;;;1.10;99.90;;;;;;4985216;28;19932;-84
2021/01/25 02:36:49;;;;;;;;;;;1.10;99.90;;;;;;5004724;28;19918;-84
2021/01/25 02:39:16;;;;;;;;;;;1.00;99.90;;;;;;5000971;28;20290;-86
2021/01/25 02:41:42;;;;;;;;;;;1.00;99.90;;;;;;5003115;28;20375;-82
2021/01/25 02:44:08;;;;;;;;;;;1.10;99.90;;;;;;5004467;28;19913;-85
2021/01/25 02:46:33;;;;;;;;;;;1.00;99.90;;;;;;5004314;28;19914;-82
2021/01/25 02:48:59;;;;;;;;;;;1.10;99.90;;;;;;5004519;28;20330;-84
2021/01/25 02:51:25;;;;;;;;;;;1.10;99.90;;;;;;4987199;28;20053;-83
2021/01/25 02:53:51;;;;;;;;;;;1.10;99.90;;;;;;4986733;28;20377;-86
2021/01/25 02:56:16;;;;;;;;;;;1.10;99.90;;;;;;5004305;28;19917;-86
2021/01/25 02:58:42;;;;;;;;;;;1.10;99.90;;;;;;4983909;28;19914;-85
2021/01/25 03:01:08;;;;;;;;;;;1.10;99.90;;;;;;5002143;28;20000;-83
2021/01/25 03:03:34;;;;;;;;;;;1.10;99.90;;;;;;4989807;28;19925;-86
2021/01/25 03:05:59;;;;;;;;;;;1.00;99.90;;;;;;5001040;28;20341;-84
2021/01/25 03:08:26;;;;;;;;;;;1.10;99.90;;;;;;5003455;28;19913;-81
2021/01/25 03:10:51;;;;;;;;;;;1.10;99.90;;;;;;4997538;28;19910;-83
2021/01/25 03:13:16;;;;;;;;;;;1.10;99.90;;;;;;5003117;28;19961;-82
2021/01/25 03:15:43;;;;;;;;;;;1.10;99.90;;;;;;4981893;28;19917;-84
2021/01/25 03:18:09;;;;;;;;;;;1.10;99.90;;;;;;4987919;28;19921;-82
2021/01/25 03:20:34;;;;;;;;;;;1.10;99.90;;;;;;5006390;28;19910;-84
2021/01/25 03:23:00;;;;;;;;;;;1.10;99.90;;;;;;5009344;28;19977;-82
2021/01/25 03:25:25;;;;;;;;;;;1.10;99.90;;;;;;5000076;28;19910;-81
2021/01/25 03:27:51;;;;;;;;;;;1.10;99.90;;;;;;4983638;28;19917;-84
2021/01/25 03:30:16;;;;;;;;;;;1.10;99.90;;;;;;4991133;28;19918;-82
2021/01/25 03:32:42;;;;;;;;;;;1.10;99.90;;;;;;4994869;28;19914;-86
2021/01/25 03:35:09;;;;;;;;;;;1.10;99.90;;;;;;4982212;28;19917;-85
2021/01/25 03:37:35;;;;;;;;;;;1.10;99.90;;;;;;4998976;28;19910;-82
2021/01/25 03:40:00;;;;;;;;;;;1.10;99.90;;;;;;5000063;28;19917;-83
2021/01/25 03:42:26;;;;;;;;;;;1.20;99.90;;;;;;4996879;28;20302;-83
2021/01/25 03:44:52;;;;;;;;;;;1.20;99.90;;;;;;4999549;28;19961;-82
2021/01/25 03:47:17;;;;;;;;;;;1.20;99.90;;;;;;4994321;28;19937;-83
2021/01/25 03:49:43;;;;;;;;;;;1.20;99.90;;;;;;4999083;28;20342;-84
2021/01/25 03:52:08;;;;;;;;;;;1.20;99.90;;;;;;4982256;28;19937;-83
2021/01/25 03:54:33;;;;;;;;;;;1.20;99.90;;;;;;5000506;28;19918;-82
2021/01/25 03:57:01;;;;;;;;;;;1.20;99.90;;;;;;5000972;28;19917;-84
2021/01/25 03:59:27;;;;;;;;;;;1.20;99.90;;;;;;4999893;28;19914;-84
2021/01/25 04:01:52;;;;;;;;;;;1.20;99.90;;;;;;4981198;28;20012;-82
2021/01/25 04:04:18;;;;;;;;;;;1.30;99.90;;;;;;4988576;28;19981;-84
2021/01/25 04:06:44;;;;;;;;;;;1.30;99.90;;;;;;4982825;28;19914;-84
2021/01/25 04:09:09;;;;;;;;;;;1.30;99.90;;;;;;5000849;28;20012;-86
2021/01/25 04:11:35;;;;;;;;;;;1.30;99.90;;;;;;5000666;28;20434;-84
2021/01/25 04:14:00;;;;;;;;;;;1.20;99.90;;;;;;4999349;28;19926;-84
2021/01/25 04:16:26;;;;;;;;;;;1.30;99.90;;;;;;5000478;28;20086;-86
2021/01/25 04:18:54;;;;;;;;;;;1.30;99.90;;;;;;4990014;28;19914;-84
2021/01/25 04:21:20;;;;;;;;;;;1.30;99.90;;;;;;4982780;28;19910;-83
2021/01/25 04:23:45;;;;;;;;;;;1.30;99.90;;;;;;4983208;28;19956;-83
2021/01/25 04:26:10;;;;;;;;;;;1.30;99.90;;;;;;5003765;28;19917;-85
2021/01/25 04:28:36;;;;;;;;;;;1.30;99.90;;;;;;5020072;28;19929;-83
2021/01/25 04:31:02;;;;;;;;;;;1.30;99.90;;;;;;5021212;28;19910;-84
2021/01/25 04:33:27;;;;;;;;;;;1.30;99.90;;;;;;5021599;28;20246;-83
2021/01/25 04:35:52;;;;;;;;;;;1.30;99.90;;;;;;5005216;28;19996;-83
2021/01/25 04:38:18;;;;;;;;;;;1.30;99.90;;;;;;5024062;28;19914;-83
2021/01/25 04:40:43;;;;;;;;;;;1.30;99.90;;;;;;5024445;28;19914;-85
2021/01/25 04:43:09;;;;;;;;;;;1.30;99.90;;;;;;5024722;28;19913;-83
2021/01/25 04:45:34;;;;;;;;;;;1.30;99.90;;;;;;5023706;28;19913;-84
2021/01/25 04:48:00;;;;;;;;;;;1.30;99.90;;;;;;5025402;28;19966;-84
2021/01/25 04:50:26;;;;;;;;;;;1.40;99.90;;;;;;5026887;28;19921;-82
2021/01/25 04:52:52;;;;;;;;;;;1.40;99.90;;;;;;5006784;28;19921;-82
2021/01/25 04:55:17;;;;;;;;;;;1.40;99.90;;;;;;5008104;28;19941;-85
2021/01/25 04:57:44;;;;;;;;;;;1.40;99.90;;;;;;5008308;28;19917;-83
2021/01/25 05:00:10;;;;;;;;;;;1.40;99.90;;;;;;5024142;28;19913;-83
2021/01/25 05:02:39;;;;;;;;;;;1.40;99.90;;;;;;5026213;28;19917;-84
2021/01/25 05:05:05;;;;;;;;;;;1.40;99.90;;;;;;5011421;28;20172;-84
2021/01/25 05:07:31;;;;;;;;;;;1.50;99.90;;;;;;5003482;28;19921;-85
2021/01/25 05:09:57;;;;;;;;;;;1.50;99.90;;;;;;5009156;28;19980;-83
2021/01/25 05:12:22;;;;;;;;;;;1.50;99.90;;;;;;5026233;28;19964;-83
2021/01/25 05:14:48;;;;;;;;;;;1.50;99.90;;;;;;5025724;28;19925;-84
2021/01/25 05:17:14;;;;;;;;;;;1.50;99.90;;;;;;5027261;28;19913;-84
2021/01/25 05:19:46;;;;;;;;;;;1.50;99.90;;;;;;5010058;28;20472;-83
2021/01/25 05:22:15;;;;;;;;;;;1.50;99.90;;;;;;5028005;28;19913;-83
2021/01/25 05:24:48;;;;;;;;;;;1.50;99.90;;;;;;5016363;28;19910;-85
2021/01/25 05:27:23;;;;;;;;;;;1.50;99.90;;;;;;5027227;28;19917;-85
2021/01/25 05:29:48;;;;;;;;;;;1.60;99.90;;;;;;5009252;28;21613;-85
2021/01/25 05:32:14;;;;;;;;;;;1.60;99.90;;;;;;5010288;28;19973;-84
2021/01/25 05:34:39;;;;;;;;;;;1.60;99.90;;;;;;5025505;28;19932;-83
2021/01/25 05:37:05;;;;;;;;;;;1.60;99.90;;;;;;5026169;28;19948;-84
2021/01/25 05:39:31;;;;;;;;;;;1.60;99.90;;;;;;5017854;28;19916;-83
2021/01/25 05:41:57;;;;;;;;;;;1.60;99.90;;;;;;5007566;28;19906;-85
2021/01/25 05:44:23;;;;;;;;;;;1.60;99.90;;;;;;5006369;28;19925;-83
2021/01/25 05:46:49;;;;;;;;;;;1.70;99.90;;;;;;5024167;28;19909;-83
2021/01/25 05:49:24;;;;;;;;;;;1.70;99.90;;;;;;5006839;28;19910;-84
2021/01/25 05:51:51;;;;;;;;;;;1.80;99.90;;;;;;5026128;28;19948;-84
2021/01/25 05:54:20;;;;;;;;;;;1.90;99.90;;;;;;5008874;28;19917;-82
2021/01/25 05:56:45;;;;;;;;;;;1.90;99.90;;;;;;5016784;28;19941;-84
2021/01/25 05:59:10;;;;;;;;;;;2.00;99.90;;;;;;5024911;28;19906;-83
2021/01/25 06:01:37;;;;;;;;;;;2.00;99.90;;;;;;5006675;28;21653;-82
2021/01/25 06:04:03;;;;;;;;;;;2.00;99.90;;;;;;5025525;28;19983;-87
2021/01/25 06:06:35;;;;;;;;;;;2.00;99.90;;;;;;5025362;28;19910;-84
2021/01/25 06:09:20;;;;;;;;;;;2.00;99.90;;;;;;5026106;28;19905;-84
2021/01/25 06:11:46;;;;;;;;;;;2.00;99.90;;;;;;4987506;28;19952;-83
2021/01/25 06:14:21;;;;;;;;;;;1.90;99.90;;;;;;5008030;28;20373;-84
2021/01/25 06:16:48;;;;;;;;;;;1.90;99.90;;;;;;5023532;28;19917;-83
2021/01/25 06:19:14;;;;;;;;;;;2.00;99.90;;;;;;5025891;28;19916;-85
2021/01/25 06:21:40;;;;;;;;;;;2.00;99.90;;;;;;5025634;28;19917;-85
2021/01/25 06:24:11;;;;;;;;;;;2.10;99.90;;;;;;5007968;28;19910;-85
2021/01/25 06:26:37;;;;;;;;;;;2.10;99.90;;;;;;5025526;28;19924;-85
2021/01/25 06:29:06;;;;;;;;;;;2.20;99.90;;;;;;5004828;28;19918;-85
2021/01/25 06:31:33;;;;;;;;;;;2.20;99.90;;;;;;5005920;28;20008;-86
2021/01/25 06:34:01;;;;;;;;;;;2.20;99.90;;;;;;5026031;28;19913;-85
2021/01/25 06:36:26;;;;;;;;;;;2.10;99.90;;;;;;5023143;28;20012;-85
2021/01/25 06:38:52;;;;;;;;;;;2.20;99.90;;;;;;5025818;28;19960;-85
2021/01/25 06:41:17;;;;;;;;;;;2.20;99.90;;;;;;5025791;28;19917;-85
2021/01/25 06:43:45;;;;;;;;;;;2.20;99.90;;;;;;5009121;28;19932;-87
2021/01/25 06:46:15;;;;;;;;;;;2.20;99.90;;;;;;5019189;28;20283;-86
2021/01/25 06:48:40;;;;;;;;;;;2.30;99.90;;;;;;5027253;28;19944;-85
2021/01/25 06:51:08;;;;;;;;;;;2.30;99.90;;;;;;5026186;28;19909;-85
2021/01/25 06:53:34;;;;;;;;;;;2.30;99.90;;;;;;5022549;28;20413;-83
2021/01/25 06:56:00;;;;;;;;;;;2.30;99.90;;;;;;5020547;28;21647;-84
2021/01/25 06:58:30;;;;;;;;;;;2.40;99.90;;;;;;5022658;28;20374;-83
2021/01/25 07:00:55;;;;;;;;;;;2.40;99.90;;;;;;5004009;28;19909;-84
2021/01/25 07:03:21;;;;;;;;;;;2.40;99.90;;;;;;5004817;28;19946;-86
2021/01/25 07:05:48;;;;;;;;;;;2.50;99.90;;;;;;4999937;28;19909;-86
2021/01/25 07:08:32;;;;;;;;;;;2.50;99.90;;;;;;5017582;28;19910;-85
2021/01/25 07:11:01;;;;;;;;;;;2.60;99.90;;;;;;5018419;28;19913;-86
2021/01/25 07:13:28;;;;;;;;;;;2.70;99.90;;;;;;4999996;28;19909;-86
2021/01/25 07:15:54;;;;;;;;;;;2.70;99.90;;;;;;4995627;28;19914;-85
2021/01/25 07:18:20;;;;;;;;;;;2.80;99.90;;;;;;4983848;28;19920;-86
2021/01/25 07:20:46;;;;;;;;;;;2.80;99.90;;;;;;4999148;28;19967;-86
2021/01/25 07:23:13;;;;;;;;;;;2.90;99.90;;;;;;4998953;28;20392;-87
2021/01/25 07:25:39;;;;;;;;;;;2.90;99.90;;;;;;5015999;28;19966;-85
2021/01/25 07:28:04;;;;;;;;;;;2.90;99.90;;;;;;5042312;23;20012;-83
2021/01/25 07:30:34;;;;;;;;;;;3.00;99.90;;;;;;5042562;28;19916;-83
2021/01/25 07:33:05;;;;;;;;;;;3.00;99.90;;;;;;5059827;28;19908;-83
2021/01/25 07:35:34;;;;;;;;;;;3.00;99.90;;;;;;5056297;28;19945;-82
2021/01/25 07:37:59;;;;;;;;;;;3.00;99.90;;;;;;5043381;28;19976;-82
2021/01/25 07:40:24;;;;;;;;;;;3.00;99.90;;;;;;5049570;28;19964;-83
2021/01/25 07:42:52;;;;;;;;;;;3.00;99.90;;;;;;5036669;28;19935;-83
2021/01/25 07:45:17;;;;;;;;;;;3.00;99.90;;;;;;5054509;28;19919;-82
2021/01/25 07:47:46;;;;;;;;;;;3.00;99.90;;;;;;5040830;28;19913;-82
2021/01/25 07:50:12;;;;;;;;;;;3.10;99.90;;;;;;5059371;28;19916;-83
2021/01/25 07:52:37;;;;;;;;;;;3.10;99.90;;;;;;5059247;28;19963;-82
2021/01/25 07:55:13;;;;;;;;;;;3.10;99.90;;;;;;5040227;28;19921;-83
2021/01/25 07:57:38;;;;;;;;;;;3.10;99.90;;;;;;5060404;28;20270;-83
2021/01/25 08:00:13;;;;;;;;;;;3.20;99.90;;;;;;5057921;28;19920;-82
2021/01/25 08:02:39;;;;;;;;;;;3.20;99.90;;;;;;5055801;28;19972;-83
2021/01/25 08:05:06;;;;;;;;;;;3.20;99.90;;;;;;5038932;28;19913;-85
2021/01/25 08:07:31;;;;;;;;;;;3.20;99.90;;;;;;5058471;28;19909;-83
2021/01/25 08:09:57;;;;;;;;;;;3.30;99.90;;;;;;5056320;28;20191;-83
2021/01/25 08:12:23;;;;;;;;;;;3.30;99.90;;;;;;5039260;28;20361;-83
2021/01/25 08:14:59;;;;;;;;;;;3.30;99.90;;;;;;5059495;28;19920;-83
2021/01/25 08:17:30;;;;;;;;;;;3.40;99.90;;;;;;5060686;28;19957;-83
2021/01/25 08:20:02;;;;;;;;;;;3.40;99.90;;;;;;5059467;28;20007;-83
2021/01/25 08:22:35;;;;;;;;;;;3.40;99.90;;;;;;5038503;28;19948;-83
2021/01/25 08:25:01;;;;;;;;;;;3.50;99.90;;;;;;5056253;28;20007;-84
2021/01/25 08:27:29;;;;;;;;;;;3.50;99.90;;;;;;5032969;28;19944;-83
2021/01/25 08:30:11;;;;;;;;;;;3.60;99.90;;;;;;5039031;28;19909;-83
2021/01/25 08:32:47;;;;;;;;;;;3.70;99.90;;;;;;5055425;28;20292;-83
2021/01/25 08:35:14;;;;;;;;;;;3.70;99.90;;;;;;5057046;28;19917;-83
2021/01/25 08:37:39;;;;;;;;;;;3.70;99.90;;;;;;5058541;28;19913;-83
2021/01/25 08:40:13;;;;;;;;;;;3.80;99.90;;;;;;5058831;28;19963;-83
2021/01/25 08:42:38;;;;;;;;;;;3.80;99.90;;;;;;5056537;28;19916;-83
2021/01/25 08:45:08;;;;;;;;;;;3.80;99.90;;;;;;5053518;28;20216;-84
2021/01/25 08:47:34;;;;;;;;;;;3.80;99.90;;;;;;5058550;28;19920;-84
2021/01/25 08:50:00;;;;;;;;;;;3.90;99.90;;;;;;5042207;28;19913;-83
2021/01/25 08:52:39;;;;;;;;;;;3.90;99.90;;;;;;5060432;28;19921;-84
2021/01/25 08:55:11;;;;;;;;;;;3.90;99.90;;;;;;5061307;28;19913;-84
2021/01/25 08:57:38;;;;;;;;;;;4.00;99.90;;;;;;5060588;28;19912;-84
2021/01/25 09:00:10;;;;;;;;;;;4.00;99.90;;;;;;5062556;28;19909;-84
2021/01/25 09:02:35;;;;;;;;;;;4.00;99.90;;;;;;5049645;28;19999;-82
2021/01/25 09:05:01;;;;;;;;;;;4.10;99.90;;;;;;5059954;28;19971;-84
2021/01/25 09:07:26;;;;;;;;;;;4.10;99.90;;;;;;5048249;28;19971;-84
2021/01/25 09:09:52;;;;;;;;;;;4.20;99.90;;;;;;5059143;28;19920;-84
2021/01/25 09:12:18;;;;;;;;;;;4.30;99.90;;;;;;5059769;28;20369;-84
2021/01/25 09:14:44;;;;;;;;;;;4.40;99.90;;;;;;5040015;28;19960;-84
2021/01/25 09:17:10;;;;;;;;;;;4.50;99.90;;;;;;5059325;28;19913;-84
2021/01/25 09:19:36;;;;;;;;;;;4.60;99.90;;;;;;5045017;28;20044;-84
2021/01/25 09:22:02;;;;;;;;;;;4.70;99.90;;;;;;5060398;28;19920;-84
2021/01/25 09:24:28;;;;;;;;;;;4.70;99.90;;;;;;5059056;28;19913;-84
2021/01/25 09:26:53;;;;;;;;;;;4.90;99.90;;;;;;5060501;28;19922;-84
2021/01/25 09:29:19;;;;;;;;;;;5.00;99.90;;;;;;5054292;28;19924;-84
2021/01/25 09:31:44;;;;;;;;;;;5.10;99.90;;;;;;5047468;28;19955;-84
2021/01/25 09:34:10;;;;;;;;;;;5.10;99.90;;;;;;5056728;28;20407;-83
2021/01/25 09:36:35;;;;;;;;;;;5.20;99.90;;;;;;5030499;28;20511;-84
2021/01/25 09:39:01;;;;;;;;;;;5.30;99.90;;;;;;5054378;28;19921;-84
2021/01/25 09:41:27;;;;;;;;;;;5.40;99.90;;;;;;5040421;28;19923;-84
2021/01/25 09:43:54;;;;;;;;;;;5.40;99.90;;;;;;5037321;28;20396;-84
2021/01/25 09:46:20;;;;;;;;;;;5.40;99.90;;;;;;5054252;28;19920;-84
2021/01/25 09:48:45;;;;;;;;;;;5.40;99.90;;;;;;5060272;28;20369;-84
2021/01/25 09:51:11;;;;;;;;;;;5.50;99.90;;;;;;5043143;28;20347;-84
2021/01/25 09:53:36;;;;;;;;;;;5.50;99.90;;;;;;5054635;28;19913;-84
2021/01/25 09:56:02;;;;;;;;;;;5.50;99.90;;;;;;5056206;28;19996;-84
2021/01/25 09:58:27;;;;;;;;;;;5.60;99.90;;;;;;5048690;28;19947;-84
2021/01/25 10:00:53;;;;;;;;;;;5.60;99.90;;;;;;5053551;28;19913;-84
2021/01/25 10:03:18;;;;;;;;;;;5.60;99.90;;;;;;5037779;28;20400;-84
2021/01/25 10:05:44;;;;;;;;;;;5.70;99.90;;;;;;5053668;28;19924;-84
2021/01/25 10:08:09;;;;;;;;;;;5.70;99.90;;;;;;5041997;28;20059;-85
2021/01/25 10:10:35;;;;;;;;;;;5.80;99.90;;;;;;5041561;28;19943;-85
2021/01/25 10:13:00;;;;;;;;;;;5.80;99.90;;;;;;5049022;28;19959;-84
2021/01/25 10:15:26;;;;;;;;;;;5.90;99.90;;;;;;5044183;28;19960;-84
2021/01/25 10:17:52;;;;;;;;;;;6.10;99.90;;;;;;5032488;28;19916;-84
2021/01/25 10:20:18;;;;;;;;;;;6.40;99.90;;;;;;5050424;28;19959;-85
2021/01/25 10:22:43;;;;;;;;;;;6.80;99.90;;;;;;5035977;28;19917;-84
2021/01/25 10:25:10;;;;;;;;;;;7.10;99.90;;;;;;5052865;28;20465;-84
2021/01/25 10:27:36;;;;;;;;;;;7.30;99.90;;;;;;5035130;28;19956;-85
2021/01/25 10:30:02;;;;;;;;;;;7.50;99.90;;;;;;5036843;28;19995;-85
2021/01/25 10:32:28;;;;;;;;;;;7.70;99.90;;;;;;5052927;28;19995;-85
2021/01/25 10:34:53;;;;;;;;;;;7.90;99.90;;;;;;5046167;28;20122;-85
2021/01/25 10:37:19;;;;;;;;;;;8.10;99.90;;;;;;5028291;28;19962;-85
2021/01/25 10:39:47;;;;;;;;;;;8.30;99.90;;;;;;5052841;28;19916;-85
2021/01/25 10:42:13;;;;;;;;;;;8.70;99.90;;;;;;5057429;28;19999;-85
2021/01/25 10:44:38;;;;;;;;;;;9.30;99.90;;;;;;5042584;28;19961;-85
2021/01/25 10:47:04;;;;;;;;;;;9.80;99.90;;;;;;5051772;28;19912;-84
2021/01/25 10:49:29;;;;;;;;;;;10.10;99.90;;;;;;5059063;28;19909;-85
2021/01/25 10:51:56;;;;;;;;;;;10.30;99.90;;;;;;5050625;28;20336;-84
2021/01/25 10:54:25;;;;;;;;;;;10.40;99.90;;;;;;5051262;28;20404;-84
2021/01/25 10:56:51;;;;;;;;;;;10.60;99.90;;;;;;5036965;28;19969;-85
2021/01/25 10:59:17;;;;;;;;;;;10.60;99.90;;;;;;5058805;28;19952;-85
2021/01/25 11:01:43;;;;;;;;;;;10.60;99.90;;;;;;5038110;28;19959;-85
2021/01/25 11:04:08;;;;;;;;;;;10.50;99.90;;;;;;5049996;28;19921;-84
2021/01/25 11:06:34;;;;;;;;;;;10.50;99.90;;;;;;5048822;28;19909;-84
2021/01/25 11:08:59;;;;;;;;;;;10.50;99.90;;;;;;5050359;28;19917;-84
2021/01/25 11:11:25;;;;;;;;;;;10.30;99.90;;;;;;5036833;28;19960;-84
2021/01/25 11:13:50;;;;;;;;;;;10.20;99.90;;;;;;5054636;28;19919;-84
2021/01/25 11:16:15;;;;;;;;;;;10.00;99.90;;;;;;5056847;28;20413;-84
2021/01/25 11:18:41;;;;;;;;;;;9.90;99.90;;;;;;5052615;28;20385;-84
2021/01/25 11:21:06;;;;;;;;;;;9.80;99.90;;;;;;5052478;28;19924;-84
2021/01/25 11:23:32;;;;;;;;;;;9.60;99.90;;;;;;5054004;28;19990;-84
2021/01/25 11:25:57;;;;;;;;;;;9.40;99.90;;;;;;5032766;28;19960;-84
2021/01/25 11:28:23;;;;;;;;;;;9.00;99.90;;;;;;5053836;28;19916;-84
2021/01/25 11:30:49;;;;;;;;;;;8.70;99.90;;;;;;5044860;28;19943;-84
2021/01/25 11:33:14;;;;;;;;;;;8.70;99.90;;;;;;5015363;28;20285;-84
2021/01/25 11:35:40;;;;;;;;;;;8.80;99.90;;;;;;5050336;28;19963;-84
2021/01/25 11:38:05;;;;;;;;;;;9.50;99.90;;;;;;5051339;28;19917;-85
2021/01/25 11:40:31;;;;;;;;;;;10.70;99.90;;;;;;5051966;28;20293;-85
2021/01/25 11:42:56;;;;;;;;;;;12.10;99.90;;;;;;5034356;28;20292;-85
2021/01/25 11:45:22;;;;;;;;;;;13.30;99.90;;;;;;5052160;28;19952;-85
2021/01/25 11:47:47;;;;;;;;;;;14.30;99.90;;;;;;5052666;28;19912;-86
2021/01/25 11:50:12;;;;;;;;;;;15.20;99.90;;;;;;5051419;28;19913;-85
2021/01/25 11:52:38;;;;;;;;;;;15.80;99.90;;;;;;5037191;28;19916;-85
2021/01/25 11:55:04;;;;;;;;;;;16.20;99.90;;;;;;5035289;28;19924;-85
2021/01/25 11:57:31;;;;;;;;;;;17.00;99.90;;;;;;5056585;28;20364;-85
2021/01/25 11:59:56;;;;;;;;;;;17.80;99.90;;;;;;5053896;28;20404;-85
2021/01/25 12:02:24;;;;;;;;;;;18.60;99.90;;;;;;5035596;28;19917;-85
2021/01/25 12:04:50;;;;;;;;;;;18.50;99.90;;;;;;5052130;28;19916;-85
2021/01/25 12:07:16;;;;;;;;;;;18.10;99.90;;;;;;5036290;28;19924;-85
2021/01/25 12:09:42;;;;;;;;;;;17.20;99.90;;;;;;5052128;28;19912;-83
2021/01/25 12:12:07;;;;;;;;;;;16.10;99.90;;;;;;5053633;28;19920;-84
2021/01/25 12:14:32;;;;;;;;;;;15.20;99.90;;;;;;5052160;28;19913;-84
2021/01/25 12:16:58;;;;;;;;;;;14.40;99.90;;;;;;5035538;28;20351;-83
2021/01/25 12:19:24;;;;;;;;;;;14.20;99.90;;;;;;5053116;28;20266;-83
2021/01/25 12:21:50;;;;;;;;;;;14.20;99.90;;;;;;5053925;28;19915;-83
2021/01/25 12:24:15;;;;;;;;;;;14.20;99.90;;;;;;5052144;28;20292;-84
2021/01/25 12:26:41;;;;;;;;;;;14.30;99.90;;;;;;5051530;28;19916;-84
2021/01/25 12:29:06;;;;;;;;;;;14.40;99.90;;;;;;5052636;28;19924;-84
2021/01/25 12:31:32;;;;;;;;;;;14.60;99.90;;;;;;5053286;28;19944;-84
2021/01/25 12:33:57;;;;;;;;;;;15.30;99.90;;;;;;5052657;28;19912;-84
2021/01/25 12:36:22;;;;;;;;;;;15.30;99.90;;;;;;5052971;28;20012;-85
2021/01/25 12:38:48;;;;;;;;;;;15.60;99.90;;;;;;5051485;28;19920;-85
2021/01/25 12:41:14;;;;;;;;;;;16.00;99.90;;;;;;5054235;28;19920;-84
2021/01/25 12:43:40;;;;;;;;;;;16.30;99.90;;;;;;5052103;28;20383;-85
2021/01/25 12:46:05;;;;;;;;;;;16.40;99.90;;;;;;5059335;28;19913;-85
2021/01/25 12:48:30;;;;;;;;;;;16.30;99.90;;;;;;5038450;28;19913;-85
2021/01/25 12:50:56;;;;;;;;;;;16.40;99.90;;;;;;5052580;28;20030;-85
2021/01/25 12:53:21;;;;;;;;;;;16.50;99.90;;;;;;5052946;28;20389;-85
2021/01/25 12:55:47;;;;;;;;;;;16.50;99.90;;;;;;5055353;28;19924;-85
2021/01/25 12:58:12;;;;;;;;;;;16.60;99.90;;;;;;5056094;28;19916;-85
2021/01/25 13:00:40;;;;;;;;;;;16.60;99.90;;;;;;5055278;28;19948;-85
2021/01/25 13:03:06;;;;;;;;;;;16.70;99.90;;;;;;5056463;28;20393;-85
2021/01/25 13:05:34;;;;;;;;;;;16.60;99.90;;;;;;5056242;28;20419;-85
2021/01/25 13:07:59;;;;;;;;;;;16.60;99.90;;;;;;5056289;28;20007;-85
2021/01/25 13:10:25;;;;;;;;;;;16.50;99.90;;;;;;5056748;28;19936;-85
2021/01/25 13:12:51;;;;;;;;;;;16.40;99.90;;;;;;5055493;28;19962;-85
2021/01/25 13:15:17;;;;;;;;;;;16.30;99.90;;;;;;5055822;28;20293;-84
2021/01/25 13:17:43;;;;;;;;;;;16.10;99.90;;;;;;5036991;28;20422;-85
2021/01/25 13:20:10;;;;;;;;;;;15.90;99.90;;;;;;5056063;28;20000;-85
2021/01/25 13:22:36;;;;;;;;;;;15.70;99.90;;;;;;5039111;28;20387;-85
2021/01/25 13:25:01;;;;;;;;;;;15.60;99.90;;;;;;5038565;28;20004;-85
2021/01/25 13:27:27;;;;;;;;;;;15.50;99.90;;;;;;5056520;28;19913;-85
2021/01/25 13:29:52;;;;;;;;;;;15.30;99.90;;;;;;5051542;23;20031;-82
2021/01/25 13:32:18;;;;;;;;;;;15.00;99.90;;;;;;5042597;28;19913;-82
2021/01/25 13:34:43;;;;;;;;;;;14.90;99.90;;;;;;5023032;28;20384;-85
2021/01/25 13:37:10;;;;;;;;;;;14.90;99.90;;;;;;5042719;28;19952;-85
2021/01/25 13:39:38;;;;;;;;;;;14.80;99.90;;;;;;5042496;28;19916;-84
2021/01/25 13:42:04;;;;;;;;;;;14.80;99.90;;;;;;5043326;28;19988;-85
2021/01/25 13:44:29;;;;;;;;;;;14.60;99.90;;;;;;5042847;28;19954;-84
2021/01/25 13:46:55;;;;;;;;;;;14.40;99.90;;;;;;5025494;28;19983;-84
2021/01/25 13:49:20;;;;;;;;;;;14.30;99.90;;;;;;5043012;28;20327;-84
2021/01/25 13:51:46;;;;;;;;;;;14.20;99.90;;;;;;5041183;28;19913;-84
2021/01/25 13:54:11;;;;;;;;;;;14.10;99.90;;;;;;5041512;28;19913;-84
2021/01/25 13:56:37;;;;;;;;;;;14.20;99.90;;;;;;5025201;28;19943;-85
2021/01/25 13:59:03;;;;;;;;;;;14.20;99.90;;;;;;5025071;28;20396;-84
2021/01/25 14:01:28;;;;;;;;;;;14.20;99.90;;;;;;5024492;28;19917;-84
2021/01/25 14:03:56;;;;;;;;;;;14.20;99.90;;;;;;5024836;28;19913;-84
2021/01/25 14:06:22;;;;;;;;;;;14.10;99.90;;;;;;5023558;28;19909;-84
2021/01/25 14:08:47;;;;;;;;;;;14.00;99.90;;;;;;5043130;28;19920;-84
2021/01/25 14:11:13;;;;;;;;;;;13.90;99.90;;;;;;5024358;28;19913;-85
2021/01/25 14:13:38;;;;;;;;;;;13.70;99.90;;;;;;5024927;28;19924;-84
2021/01/25 14:16:04;;;;;;;;;;;13.60;99.90;;;;;;5041036;28;19944;-85
2021/01/25 14:18:30;;;;;;;;;;;13.60;99.90;;;;;;5024240;28;19971;-85
2021/01/25 14:20:58;;;;;;;;;;;13.40;99.90;;;;;;5023803;28;19956;-84
2021/01/25 14:23:23;;;;;;;;;;;13.40;99.90;;;;;;5041504;28;19916;-84